Date,TemperatureHighF,TemperatureAvgF,TemperatureLowF,DewpointHighF,DewpointAvgF,DewpointLowF,HumidityHigh,HumidityAvg,HumidityLow,PressureMaxIn,PressureMinIn,WindSpeedMaxMPH,WindSpeedAvgMPH,GustSpeedMaxMPH,PrecipitationSumIn
2013-1-1,34.0,27.3,13.2,28.0,19.2,6.0,82,72,54,29.97,29.75,5,1,0,0.01
2013-1-2,26.8,14.7,3.1,18.0,8.2,-1.0,87,75,64,30.16,29.95,5,0,0,0.00
2013-1-3,23.3,10.5,-1.8,9.0,1.3,-7.0,83,68,40,30.20,30.04,2,0,0,0.00
2013-1-4,35.6,26.5,11.1,25.0,19.5,7.0,87,75,60,30.03,29.85,6,1,0,0.01
2013-1-5,39.3,29.3,17.0,27.0,20.9,13.0,86,72,50,30.30,29.89,4,0,0,0.00
2013-1-6,39.9,28.4,17.6,29.0,23.6,14.0,94,82,64,30.27,29.98,3,0,0,0.00
2013-1-7,37.8,28.0,13.0,28.0,20.9,10.0,90,76,54,30.44,30.01,1,0,0,0.00
2013-1-8,42.7,27.5,11.8,28.0,21.1,9.0,93,78,54,30.41,30.32,7,1,0,0.00
2013-1-9,41.5,31.2,16.6,34.0,25.7,15.0,95,81,58,30.44,30.03,4,0,0,0.01
2013-1-10,42.7,36.0,26.6,30.0,26.2,23.0,86,68,52,30.58,30.07,4,1,0,0.01
2013-1-11,36.4,29.5,20.6,31.0,25.2,19.0,96,85,64,30.58,30.26,2,0,0,0.13
2013-1-12,39.9,34.7,31.8,39.0,33.9,31.0,97,96,95,30.26,30.17,1,0,0,0.03
2013-1-13,46.3,39.6,34.4,45.0,39.1,34.0,98,98,96,30.19,30.02,4,0,0,0.00
2013-1-14,55.7,43.3,34.4,49.0,39.9,30.0,98,88,61,30.30,29.91,3,0,0,0.00
2013-1-15,40.9,32.9,25.0,31.0,26.1,23.0,94,77,56,30.37,30.27,1,0,0,0.00
2013-1-16,33.1,30.3,27.6,31.0,28.5,25.0,96,93,88,30.30,29.86,0,0,0,0.44
2013-1-17,37.4,30.3,24.6,34.0,26.4,15.0,97,86,60,30.14,29.86,3,0,0,0.00
2013-1-18,26.2,18.5,10.9,14.0,5.6,1.0,80,58,42,30.49,30.10,2,0,0,0.00
2013-1-19,43.0,33.4,16.3,29.0,20.4,8.0,78,60,48,30.40,29.90,7,1,0,0.00
2013-1-20,48.9,37.1,25.2,31.0,24.8,13.0,80,62,43,29.97,29.56,7,1,0,0.00
2013-1-21,26.1,21.7,14.3,19.0,10.9,4.0,92,65,47,30.12,29.85,5,0,0,0.00
2013-1-22,24.7,16.3,7.4,18.0,8.0,-2.0,93,71,45,30.13,29.81,3,0,0,0.01
2013-1-23,15.1,8.0,0.6,-1.0,-6.4,-10.0,72,53,36,30.19,30.11,3,0,0,0.00
2013-1-24,18.1,7.5,-3.4,-3.0,-7.1,-11.0,73,53,36,30.30,30.13,3,0,0,0.00
2013-1-25,22.7,13.8,2.1,9.0,-3.8,-9.0,76,47,31,30.36,30.11,2,0,0,0.00
2013-1-26,23.6,14.1,4.2,10.0,2.8,-2.0,89,63,38,30.29,30.06,3,0,0,0.00
2013-1-27,29.5,16.9,7.3,6.0,2.9,-1.0,78,56,35,30.52,30.29,3,0,0,0.00
2013-1-28,27.1,20.4,9.3,22.0,14.1,3.0,93,77,49,30.51,30.08,1,0,0,0.00
2013-1-29,31.7,27.4,19.4,30.0,25.6,18.0,96,92,88,30.24,30.08,1,0,0,0.09
2013-1-30,56.0,40.8,30.8,54.0,39.9,30.0,99,96,94,30.18,29.46,6,1,0,0.11
2013-1-31,58.4,43.5,27.1,57.0,37.4,18.0,98,80,51,29.61,28.96,13,2,0,0.66